TAF and METAR

METAR for Nioro Airport

GANR 230900Z 16010KT CAVOK 35/18 Q1012
Report created 23. mai 11:00
wind 10 knots from SSE (160°) Clear sky Temperature 35° with dewpoint at 18° (Humidity 36.76%) Pressure 1012 hPa
No TAF available for Nioro Airport
Nioro Airport in Mali at 237m

Latest 5 airports